sensor_id;sensor_type;location;lat;lon;timestamp;P1;durP1;ratioP1;P2;durP2;ratioP2
14768;SDS011;7476;49.404;11.152;2022-10-17T00:00:35;12.47;;;3.83;;
14768;SDS011;7476;49.404;11.152;2022-10-17T00:03:02;7.47;;;4.00;;
14768;SDS011;7476;49.404;11.152;2022-10-17T00:05:29;7.20;;;4.23;;
14768;SDS011;7476;49.404;11.152;2022-10-17T00:07:56;11.57;;;3.67;;
14768;SDS011;7476;49.404;11.152;2022-10-17T00:10:24;7.00;;;3.80;;
14768;SDS011;7476;49.404;11.152;2022-10-17T00:12:50;5.57;;;3.90;;
14768;SDS011;7476;49.404;11.152;2022-10-17T00:15:18;10.60;;;4.33;;
14768;SDS011;7476;49.404;11.152;2022-10-17T00:17:46;7.67;;;3.80;;
14768;SDS011;7476;49.404;11.152;2022-10-17T00:20:12;5.13;;;3.70;;
14768;SDS011;7476;49.404;11.152;2022-10-17T00:22:40;5.53;;;4.20;;
14768;SDS011;7476;49.404;11.152;2022-10-17T00:25:07;8.00;;;3.97;;
14768;SDS011;7476;49.404;11.152;2022-10-17T00:27:35;5.57;;;3.80;;
14768;SDS011;7476;49.404;11.152;2022-10-17T00:30:03;8.87;;;3.90;;
14768;SDS011;7476;49.404;11.152;2022-10-17T00:32:31;6.27;;;3.47;;
14768;SDS011;7476;49.404;11.152;2022-10-17T00:34:58;4.90;;;4.00;;
14768;SDS011;7476;49.404;11.152;2022-10-17T00:37:25;6.07;;;3.63;;
14768;SDS011;7476;49.404;11.152;2022-10-17T00:39:52;8.43;;;3.93;;
14768;SDS011;7476;49.404;11.152;2022-10-17T00:42:19;8.90;;;4.33;;
14768;SDS011;7476;49.404;11.152;2022-10-17T00:45:13;6.27;;;4.37;;
14768;SDS011;7476;49.404;11.152;2022-10-17T00:47:43;6.43;;;3.73;;
14768;SDS011;7476;49.404;11.152;2022-10-17T00:50:13;7.57;;;4.37;;
14768;SDS011;7476;49.404;11.152;2022-10-17T00:52:40;10.37;;;4.53;;
14768;SDS011;7476;49.404;11.152;2022-10-17T00:55:10;11.70;;;4.50;;
14768;SDS011;7476;49.404;11.152;2022-10-17T00:57:39;9.73;;;4.30;;
14768;SDS011;7476;49.404;11.152;2022-10-17T01:00:08;12.97;;;4.63;;
14768;SDS011;7476;49.404;11.152;2022-10-17T01:02:37;4.70;;;4.17;;
14768;SDS011;7476;49.404;11.152;2022-10-17T01:05:05;10.60;;;4.67;;
14768;SDS011;7476;49.404;11.152;2022-10-17T01:07:32;7.23;;;4.47;;
14768;SDS011;7476;49.404;11.152;2022-10-17T01:10:00;8.47;;;4.70;;
14768;SDS011;7476;49.404;11.152;2022-10-17T01:12:27;11.67;;;5.13;;
14768;SDS011;7476;49.404;11.152;2022-10-17T01:15:06;14.30;;;5.33;;
14768;SDS011;7476;49.404;11.152;2022-10-17T01:17:42;8.37;;;5.37;;
14768;SDS011;7476;49.404;11.152;2022-10-17T01:23:17;5.63;;;4.60;;
14768;SDS011;7476;49.404;11.152;2022-10-17T01:25:55;7.13;;;4.43;;
14768;SDS011;7476;49.404;11.152;2022-10-17T01:28:35;9.07;;;4.63;;
14768;SDS011;7476;49.404;11.152;2022-10-17T01:31:24;6.57;;;4.30;;
14768;SDS011;7476;49.404;11.152;2022-10-17T01:33:58;5.00;;;3.90;;
14768;SDS011;7476;49.404;11.152;2022-10-17T01:36:34;10.47;;;4.57;;
14768;SDS011;7476;49.404;11.152;2022-10-17T01:39:08;5.53;;;4.10;;
14768;SDS011;7476;49.404;11.152;2022-10-17T01:41:40;8.23;;;4.00;;
14768;SDS011;7476;49.404;11.152;2022-10-17T01:44:12;10.37;;;4.57;;
14768;SDS011;7476;49.404;11.152;2022-10-17T01:46:45;9.13;;;3.90;;
14768;SDS011;7476;49.404;11.152;2022-10-17T01:49:16;7.20;;;4.33;;
14768;SDS011;7476;49.404;11.152;2022-10-17T01:51:47;6.63;;;4.30;;
14768;SDS011;7476;49.404;11.152;2022-10-17T01:54:19;5.50;;;3.67;;
14768;SDS011;7476;49.404;11.152;2022-10-17T01:56:49;5.83;;;3.93;;
14768;SDS011;7476;49.404;11.152;2022-10-17T01:59:21;6.33;;;4.20;;
14768;SDS011;7476;49.404;11.152;2022-10-17T02:01:52;6.87;;;4.30;;
14768;SDS011;7476;49.404;11.152;2022-10-17T02:04:21;7.27;;;3.90;;
14768;SDS011;7476;49.404;11.152;2022-10-17T02:06:48;7.33;;;3.90;;
14768;SDS011;7476;49.404;11.152;2022-10-17T02:09:15;6.87;;;4.00;;
14768;SDS011;7476;49.404;11.152;2022-10-17T02:11:44;8.63;;;4.03;;
14768;SDS011;7476;49.404;11.152;2022-10-17T02:14:20;6.43;;;4.30;;
14768;SDS011;7476;49.404;11.152;2022-10-17T02:16:57;8.50;;;4.07;;
14768;SDS011;7476;49.404;11.152;2022-10-17T02:19:34;7.40;;;4.17;;
14768;SDS011;7476;49.404;11.152;2022-10-17T02:22:14;4.47;;;3.90;;
14768;SDS011;7476;49.404;11.152;2022-10-17T02:24:46;8.70;;;3.90;;
14768;SDS011;7476;49.404;11.152;2022-10-17T02:27:19;5.40;;;3.93;;
14768;SDS011;7476;49.404;11.152;2022-10-17T02:29:54;9.13;;;4.47;;
14768;SDS011;7476;49.404;11.152;2022-10-17T02:32:27;4.60;;;3.70;;
14768;SDS011;7476;49.404;11.152;2022-10-17T02:35:00;5.00;;;4.10;;
14768;SDS011;7476;49.404;11.152;2022-10-17T02:37:29;5.10;;;4.07;;
14768;SDS011;7476;49.404;11.152;2022-10-17T02:39:58;4.43;;;4.03;;
14768;SDS011;7476;49.404;11.152;2022-10-17T02:42:25;5.37;;;3.73;;
14768;SDS011;7476;49.404;11.152;2022-10-17T02:44:53;6.80;;;4.30;;
14768;SDS011;7476;49.404;11.152;2022-10-17T02:47:25;5.50;;;3.70;;
14768;SDS011;7476;49.404;11.152;2022-10-17T02:49:58;10.13;;;4.10;;
14768;SDS011;7476;49.404;11.152;2022-10-17T02:52:26;5.13;;;3.90;;
14768;SDS011;7476;49.404;11.152;2022-10-17T02:54:56;6.57;;;3.90;;
14768;SDS011;7476;49.404;11.152;2022-10-17T02:57:28;4.50;;;4.10;;
14768;SDS011;7476;49.404;11.152;2022-10-17T03:00:00;7.20;;;4.00;;
14768;SDS011;7476;49.404;11.152;2022-10-17T03:02:37;4.53;;;3.83;;
14768;SDS011;7476;49.404;11.152;2022-10-17T03:05:05;6.17;;;3.90;;
14768;SDS011;7476;49.404;11.152;2022-10-17T03:07:32;10.80;;;8.37;;
14768;SDS011;7476;49.404;11.152;2022-10-17T03:09:59;12.60;;;8.30;;
14768;SDS011;7476;49.404;11.152;2022-10-17T03:12:26;7.67;;;5.20;;
14768;SDS011;7476;49.404;11.152;2022-10-17T03:14:52;7.70;;;4.57;;
14768;SDS011;7476;49.404;11.152;2022-10-17T03:17:19;4.40;;;4.00;;
14768;SDS011;7476;49.404;11.152;2022-10-17T03:19:47;7.23;;;4.10;;
14768;SDS011;7476;49.404;11.152;2022-10-17T03:22:14;5.33;;;4.07;;
14768;SDS011;7476;49.404;11.152;2022-10-17T03:24:41;4.60;;;4.00;;
14768;SDS011;7476;49.404;11.152;2022-10-17T03:27:07;6.30;;;4.30;;
14768;SDS011;7476;49.404;11.152;2022-10-17T03:29:34;9.10;;;4.20;;
14768;SDS011;7476;49.404;11.152;2022-10-17T03:32:01;9.37;;;4.20;;
14768;SDS011;7476;49.404;11.152;2022-10-17T03:34:27;4.83;;;3.80;;
14768;SDS011;7476;49.404;11.152;2022-10-17T03:36:55;6.10;;;4.20;;
14768;SDS011;7476;49.404;11.152;2022-10-17T03:39:22;4.27;;;3.87;;
14768;SDS011;7476;49.404;11.152;2022-10-17T03:41:49;10.30;;;4.07;;
14768;SDS011;7476;49.404;11.152;2022-10-17T03:44:16;5.83;;;3.93;;
14768;SDS011;7476;49.404;11.152;2022-10-17T03:46:42;5.93;;;4.33;;
14768;SDS011;7476;49.404;11.152;2022-10-17T03:49:09;6.43;;;3.97;;
14768;SDS011;7476;49.404;11.152;2022-10-17T03:51:36;5.77;;;3.90;;
14768;SDS011;7476;49.404;11.152;2022-10-17T03:54:04;4.97;;;3.70;;
14768;SDS011;7476;49.404;11.152;2022-10-17T03:56:31;5.77;;;3.57;;
14768;SDS011;7476;49.404;11.152;2022-10-17T03:58:57;5.30;;;3.70;;
14768;SDS011;7476;49.404;11.152;2022-10-17T04:01:24;4.77;;;3.97;;
14768;SDS011;7476;49.404;11.152;2022-10-17T04:03:52;5.27;;;3.30;;
14768;SDS011;7476;49.404;11.152;2022-10-17T04:06:19;5.87;;;3.53;;
14768;SDS011;7476;49.404;11.152;2022-10-17T04:08:47;4.77;;;3.90;;
14768;SDS011;7476;49.404;11.152;2022-10-17T04:11:16;5.97;;;3.73;;
14768;SDS011;7476;49.404;11.152;2022-10-17T04:13:44;6.70;;;4.03;;
14768;SDS011;7476;49.404;11.152;2022-10-17T04:16:12;5.17;;;4.33;;
14768;SDS011;7476;49.404;11.152;2022-10-17T04:18:39;7.07;;;3.80;;
14768;SDS011;7476;49.404;11.152;2022-10-17T04:21:06;6.70;;;4.30;;
14768;SDS011;7476;49.404;11.152;2022-10-17T04:23:34;4.87;;;3.67;;
14768;SDS011;7476;49.404;11.152;2022-10-17T04:26:01;5.73;;;3.80;;
14768;SDS011;7476;49.404;11.152;2022-10-17T04:28:30;12.60;;;3.60;;
14768;SDS011;7476;49.404;11.152;2022-10-17T04:30:58;4.90;;;4.00;;
14768;SDS011;7476;49.404;11.152;2022-10-17T04:33:27;6.17;;;3.70;;
14768;SDS011;7476;49.404;11.152;2022-10-17T04:35:54;5.50;;;3.90;;
14768;SDS011;7476;49.404;11.152;2022-10-17T04:38:22;4.43;;;3.80;;
14768;SDS011;7476;49.404;11.152;2022-10-17T04:40:48;3.63;;;3.23;;
14768;SDS011;7476;49.404;11.152;2022-10-17T04:43:15;10.00;;;4.20;;
14768;SDS011;7476;49.404;11.152;2022-10-17T04:45:43;4.20;;;3.80;;
14768;SDS011;7476;49.404;11.152;2022-10-17T04:48:10;4.43;;;3.63;;
14768;SDS011;7476;49.404;11.152;2022-10-17T04:50:36;4.73;;;3.97;;
14768;SDS011;7476;49.404;11.152;2022-10-17T04:53:03;3.77;;;3.47;;
14768;SDS011;7476;49.404;11.152;2022-10-17T04:55:30;7.90;;;4.90;;
14768;SDS011;7476;49.404;11.152;2022-10-17T04:57:57;8.30;;;4.33;;
14768;SDS011;7476;49.404;11.152;2022-10-17T05:00:23;8.93;;;4.80;;
14768;SDS011;7476;49.404;11.152;2022-10-17T05:02:52;6.50;;;4.27;;
14768;SDS011;7476;49.404;11.152;2022-10-17T05:05:19;7.67;;;4.70;;
14768;SDS011;7476;49.404;11.152;2022-10-17T05:07:45;9.40;;;5.10;;
14768;SDS011;7476;49.404;11.152;2022-10-17T05:10:12;8.30;;;4.97;;
14768;SDS011;7476;49.404;11.152;2022-10-17T05:12:39;6.53;;;4.63;;
14768;SDS011;7476;49.404;11.152;2022-10-17T05:15:06;7.10;;;5.17;;
14768;SDS011;7476;49.404;11.152;2022-10-17T05:17:34;8.20;;;5.33;;
14768;SDS011;7476;49.404;11.152;2022-10-17T05:20:02;8.70;;;4.80;;
14768;SDS011;7476;49.404;11.152;2022-10-17T05:22:29;9.27;;;5.53;;
14768;SDS011;7476;49.404;11.152;2022-10-17T05:24:56;11.93;;;5.77;;
14768;SDS011;7476;49.404;11.152;2022-10-17T05:27:23;8.07;;;5.13;;
14768;SDS011;7476;49.404;11.152;2022-10-17T05:29:49;7.43;;;5.10;;
14768;SDS011;7476;49.404;11.152;2022-10-17T05:32:16;9.77;;;5.40;;
14768;SDS011;7476;49.404;11.152;2022-10-17T05:34:43;8.07;;;5.30;;
14768;SDS011;7476;49.404;11.152;2022-10-17T05:37:11;7.87;;;4.87;;
14768;SDS011;7476;49.404;11.152;2022-10-17T05:39:38;6.17;;;4.87;;
14768;SDS011;7476;49.404;11.152;2022-10-17T05:42:04;7.90;;;4.77;;
14768;SDS011;7476;49.404;11.152;2022-10-17T05:44:32;8.10;;;5.27;;
14768;SDS011;7476;49.404;11.152;2022-10-17T05:46:59;13.00;;;5.67;;
14768;SDS011;7476;49.404;11.152;2022-10-17T05:49:25;9.57;;;5.27;;
14768;SDS011;7476;49.404;11.152;2022-10-17T05:51:52;7.37;;;5.37;;
14768;SDS011;7476;49.404;11.152;2022-10-17T05:54:20;10.83;;;5.93;;
14768;SDS011;7476;49.404;11.152;2022-10-17T05:56:50;10.60;;;6.30;;
14768;SDS011;7476;49.404;11.152;2022-10-17T05:59:17;11.40;;;5.77;;
14768;SDS011;7476;49.404;11.152;2022-10-17T06:01:43;8.43;;;5.03;;
14768;SDS011;7476;49.404;11.152;2022-10-17T06:04:10;11.30;;;5.43;;
14768;SDS011;7476;49.404;11.152;2022-10-17T06:06:37;6.47;;;5.10;;
14768;SDS011;7476;49.404;11.152;2022-10-17T06:09:05;7.53;;;5.37;;
14768;SDS011;7476;49.404;11.152;2022-10-17T06:11:34;7.70;;;5.30;;
14768;SDS011;7476;49.404;11.152;2022-10-17T06:14:01;6.03;;;5.00;;
14768;SDS011;7476;49.404;11.152;2022-10-17T06:16:28;7.23;;;5.90;;
14768;SDS011;7476;49.404;11.152;2022-10-17T06:18:55;7.20;;;4.93;;
14768;SDS011;7476;49.404;11.152;2022-10-17T06:21:24;8.30;;;5.17;;
14768;SDS011;7476;49.404;11.152;2022-10-17T06:23:52;6.47;;;4.83;;
14768;SDS011;7476;49.404;11.152;2022-10-17T06:26:19;8.27;;;5.50;;
14768;SDS011;7476;49.404;11.152;2022-10-17T06:28:47;6.60;;;5.00;;
14768;SDS011;7476;49.404;11.152;2022-10-17T06:31:14;8.63;;;6.00;;
14768;SDS011;7476;49.404;11.152;2022-10-17T06:33:42;9.23;;;6.20;;
14768;SDS011;7476;49.404;11.152;2022-10-17T06:36:10;11.80;;;6.27;;
14768;SDS011;7476;49.404;11.152;2022-10-17T06:38:38;6.67;;;5.47;;
14768;SDS011;7476;49.404;11.152;2022-10-17T06:41:06;8.13;;;5.27;;
14768;SDS011;7476;49.404;11.152;2022-10-17T06:43:34;7.70;;;4.77;;
14768;SDS011;7476;49.404;11.152;2022-10-17T06:46:03;7.37;;;5.17;;
14768;SDS011;7476;49.404;11.152;2022-10-17T06:48:30;7.47;;;4.87;;
14768;SDS011;7476;49.404;11.152;2022-10-17T06:50:58;8.13;;;5.10;;
14768;SDS011;7476;49.404;11.152;2022-10-17T06:53:26;6.97;;;4.53;;
14768;SDS011;7476;49.404;11.152;2022-10-17T06:55:53;9.10;;;4.53;;
14768;SDS011;7476;49.404;11.152;2022-10-17T06:58:25;8.73;;;4.73;;
14768;SDS011;7476;49.404;11.152;2022-10-17T07:00:51;6.40;;;4.63;;
14768;SDS011;7476;49.404;11.152;2022-10-17T07:03:24;7.33;;;4.67;;
14768;SDS011;7476;49.404;11.152;2022-10-17T07:05:50;7.70;;;4.43;;
14768;SDS011;7476;49.404;11.152;2022-10-17T07:08:17;13.50;;;4.57;;
14768;SDS011;7476;49.404;11.152;2022-10-17T07:10:44;6.40;;;4.67;;
14768;SDS011;7476;49.404;11.152;2022-10-17T07:13:11;9.47;;;4.03;;
14768;SDS011;7476;49.404;11.152;2022-10-17T07:15:38;9.77;;;3.80;;
14768;SDS011;7476;49.404;11.152;2022-10-17T07:18:05;7.30;;;4.13;;
14768;SDS011;7476;49.404;11.152;2022-10-17T07:20:33;7.07;;;4.30;;
14768;SDS011;7476;49.404;11.152;2022-10-17T07:23:00;7.40;;;4.63;;
14768;SDS011;7476;49.404;11.152;2022-10-17T07:25:27;7.47;;;4.60;;
14768;SDS011;7476;49.404;11.152;2022-10-17T07:27:54;10.23;;;4.47;;
14768;SDS011;7476;49.404;11.152;2022-10-17T07:30:21;7.70;;;4.10;;
14768;SDS011;7476;49.404;11.152;2022-10-17T07:32:48;7.30;;;4.20;;
14768;SDS011;7476;49.404;11.152;2022-10-17T07:35:17;6.20;;;3.80;;
14768;SDS011;7476;49.404;11.152;2022-10-17T07:37:45;6.47;;;4.00;;
14768;SDS011;7476;49.404;11.152;2022-10-17T07:40:12;7.63;;;3.90;;
14768;SDS011;7476;49.404;11.152;2022-10-17T07:42:39;5.30;;;3.63;;
14768;SDS011;7476;49.404;11.152;2022-10-17T07:45:06;4.40;;;3.33;;
14768;SDS011;7476;49.404;11.152;2022-10-17T07:47:33;5.13;;;3.60;;
14768;SDS011;7476;49.404;11.152;2022-10-17T07:50:00;4.87;;;3.70;;
14768;SDS011;7476;49.404;11.152;2022-10-17T07:52:26;5.07;;;3.73;;
14768;SDS011;7476;49.404;11.152;2022-10-17T07:54:54;5.87;;;3.23;;
14768;SDS011;7476;49.404;11.152;2022-10-17T07:57:21;6.90;;;4.10;;
14768;SDS011;7476;49.404;11.152;2022-10-17T07:59:48;7.63;;;3.70;;
14768;SDS011;7476;49.404;11.152;2022-10-17T08:02:21;4.53;;;4.13;;
14768;SDS011;7476;49.404;11.152;2022-10-17T08:04:49;6.47;;;4.00;;
14768;SDS011;7476;49.404;11.152;2022-10-17T08:07:15;8.90;;;4.80;;
14768;SDS011;7476;49.404;11.152;2022-10-17T08:09:43;6.67;;;4.27;;
14768;SDS011;7476;49.404;11.152;2022-10-17T08:12:13;4.80;;;4.30;;
14768;SDS011;7476;49.404;11.152;2022-10-17T08:14:39;5.50;;;4.10;;
14768;SDS011;7476;49.404;11.152;2022-10-17T08:17:07;4.93;;;4.00;;
14768;SDS011;7476;49.404;11.152;2022-10-17T08:19:36;3.93;;;3.63;;
14768;SDS011;7476;49.404;11.152;2022-10-17T08:22:03;5.50;;;4.10;;
14768;SDS011;7476;49.404;11.152;2022-10-17T08:24:30;5.67;;;4.00;;
14768;SDS011;7476;49.404;11.152;2022-10-17T08:26:57;5.20;;;3.80;;
14768;SDS011;7476;49.404;11.152;2022-10-17T08:29:26;4.90;;;4.00;;
14768;SDS011;7476;49.404;11.152;2022-10-17T08:31:52;5.20;;;3.67;;
14768;SDS011;7476;49.404;11.152;2022-10-17T08:34:19;6.13;;;3.43;;
14768;SDS011;7476;49.404;11.152;2022-10-17T08:36:46;4.60;;;3.80;;
14768;SDS011;7476;49.404;11.152;2022-10-17T08:39:13;4.17;;;3.70;;
14768;SDS011;7476;49.404;11.152;2022-10-17T08:41:44;5.40;;;3.50;;
14768;SDS011;7476;49.404;11.152;2022-10-17T08:44:23;5.10;;;3.37;;
14768;SDS011;7476;49.404;11.152;2022-10-17T08:46:58;4.30;;;3.90;;
14768;SDS011;7476;49.404;11.152;2022-10-17T08:49:32;5.57;;;3.33;;
14768;SDS011;7476;49.404;11.152;2022-10-17T08:52:04;4.77;;;3.60;;
14768;SDS011;7476;49.404;11.152;2022-10-17T08:54:37;5.53;;;3.30;;
14768;SDS011;7476;49.404;11.152;2022-10-17T08:57:08;3.60;;;3.10;;
14768;SDS011;7476;49.404;11.152;2022-10-17T08:59:39;4.60;;;3.60;;
14768;SDS011;7476;49.404;11.152;2022-10-17T09:02:13;3.73;;;3.40;;
14768;SDS011;7476;49.404;11.152;2022-10-17T09:04:56;5.67;;;3.10;;
14768;SDS011;7476;49.404;11.152;2022-10-17T09:07:35;3.77;;;3.40;;
14768;SDS011;7476;49.404;11.152;2022-10-17T09:10:09;4.13;;;3.20;;
14768;SDS011;7476;49.404;11.152;2022-10-17T09:12:42;5.73;;;3.17;;
14768;SDS011;7476;49.404;11.152;2022-10-17T09:18:10;4.50;;;3.20;;
14768;SDS011;7476;49.404;11.152;2022-10-17T09:20:42;4.93;;;3.20;;
14768;SDS011;7476;49.404;11.152;2022-10-17T09:23:14;5.30;;;3.33;;
14768;SDS011;7476;49.404;11.152;2022-10-17T09:25:43;3.60;;;3.10;;
14768;SDS011;7476;49.404;11.152;2022-10-17T09:28:14;3.10;;;2.80;;
14768;SDS011;7476;49.404;11.152;2022-10-17T09:30:46;3.47;;;2.97;;
14768;SDS011;7476;49.404;11.152;2022-10-17T09:33:23;4.43;;;3.13;;
14768;SDS011;7476;49.404;11.152;2022-10-17T09:35:52;5.60;;;3.43;;
14768;SDS011;7476;49.404;11.152;2022-10-17T09:38:20;3.10;;;2.80;;
14768;SDS011;7476;49.404;11.152;2022-10-17T09:40:49;3.53;;;3.23;;
14768;SDS011;7476;49.404;11.152;2022-10-17T09:43:20;3.83;;;2.83;;
14768;SDS011;7476;49.404;11.152;2022-10-17T09:45:50;3.17;;;2.87;;
14768;SDS011;7476;49.404;11.152;2022-10-17T09:48:31;3.00;;;2.73;;
14768;SDS011;7476;49.404;11.152;2022-10-17T09:51:02;4.20;;;3.23;;
14768;SDS011;7476;49.404;11.152;2022-10-17T09:53:32;4.70;;;3.00;;
14768;SDS011;7476;49.404;11.152;2022-10-17T09:56:03;3.50;;;3.20;;
14768;SDS011;7476;49.404;11.152;2022-10-17T09:58:40;3.27;;;3.00;;
14768;SDS011;7476;49.404;11.152;2022-10-17T10:01:15;3.23;;;2.93;;
14768;SDS011;7476;49.404;11.152;2022-10-17T10:03:44;4.03;;;2.90;;
14768;SDS011;7476;49.404;11.152;2022-10-17T10:06:12;5.20;;;3.23;;
14768;SDS011;7476;49.404;11.152;2022-10-17T10:08:50;5.27;;;3.17;;
14768;SDS011;7476;49.404;11.152;2022-10-17T10:11:19;4.53;;;3.40;;
14768;SDS011;7476;49.404;11.152;2022-10-17T10:13:49;3.27;;;2.97;;
14768;SDS011;7476;49.404;11.152;2022-10-17T10:16:19;3.03;;;2.80;;
14768;SDS011;7476;49.404;11.152;2022-10-17T10:18:49;3.10;;;2.80;;
14768;SDS011;7476;49.404;11.152;2022-10-17T10:21:17;5.87;;;2.97;;
14768;SDS011;7476;49.404;11.152;2022-10-17T10:24:01;3.37;;;3.07;;
14768;SDS011;7476;49.404;11.152;2022-10-17T10:26:31;4.43;;;2.90;;
14768;SDS011;7476;49.404;11.152;2022-10-17T10:29:02;3.67;;;3.30;;
14768;SDS011;7476;49.404;11.152;2022-10-17T10:31:34;3.33;;;2.83;;
14768;SDS011;7476;49.404;11.152;2022-10-17T10:34:12;3.60;;;2.97;;
14768;SDS011;7476;49.404;11.152;2022-10-17T10:36:44;7.40;;;3.40;;
14768;SDS011;7476;49.404;11.152;2022-10-17T10:39:23;4.03;;;3.20;;
14768;SDS011;7476;49.404;11.152;2022-10-17T10:42:01;4.10;;;3.03;;
14768;SDS011;7476;49.404;11.152;2022-10-17T10:44:31;5.53;;;3.20;;
14768;SDS011;7476;49.404;11.152;2022-10-17T10:47:17;3.30;;;3.00;;
14768;SDS011;7476;49.404;11.152;2022-10-17T10:49:45;4.33;;;3.20;;
14768;SDS011;7476;49.404;11.152;2022-10-17T10:52:18;4.03;;;2.93;;
14768;SDS011;7476;49.404;11.152;2022-10-17T10:54:53;5.77;;;3.20;;
14768;SDS011;7476;49.404;11.152;2022-10-17T10:57:26;3.43;;;2.93;;
14768;SDS011;7476;49.404;11.152;2022-10-17T10:59:57;5.00;;;3.20;;
14768;SDS011;7476;49.404;11.152;2022-10-17T11:02:29;4.47;;;2.83;;
14768;SDS011;7476;49.404;11.152;2022-10-17T11:05:02;4.43;;;3.40;;
14768;SDS011;7476;49.404;11.152;2022-10-17T11:07:32;4.30;;;3.37;;
14768;SDS011;7476;49.404;11.152;2022-10-17T11:10:06;4.07;;;3.67;;
14768;SDS011;7476;49.404;11.152;2022-10-17T11:12:38;4.00;;;2.93;;
14768;SDS011;7476;49.404;11.152;2022-10-17T11:15:13;4.20;;;3.37;;
14768;SDS011;7476;49.404;11.152;2022-10-17T11:17:49;4.50;;;3.40;;
14768;SDS011;7476;49.404;11.152;2022-10-17T11:20:21;4.38;;;3.10;;
14768;SDS011;7476;49.404;11.152;2022-10-17T11:22:54;4.25;;;3.35;;
14768;SDS011;7476;49.404;11.152;2022-10-17T11:25:30;3.42;;;3.13;;
14768;SDS011;7476;49.404;11.152;2022-10-17T11:27:58;3.40;;;3.10;;
14768;SDS011;7476;49.404;11.152;2022-10-17T11:30:26;4.07;;;3.17;;
14768;SDS011;7476;49.404;11.152;2022-10-17T11:32:58;5.45;;;3.58;;
14768;SDS011;7476;49.404;11.152;2022-10-17T11:35:28;3.72;;;3.40;;
14768;SDS011;7476;49.404;11.152;2022-10-17T11:38:01;3.58;;;3.28;;
14768;SDS011;7476;49.404;11.152;2022-10-17T11:40:32;4.55;;;2.85;;
14768;SDS011;7476;49.404;11.152;2022-10-17T11:43:05;3.55;;;3.03;;
14768;SDS011;7476;49.404;11.152;2022-10-17T11:45:38;3.17;;;2.97;;
14768;SDS011;7476;49.404;11.152;2022-10-17T11:48:11;3.33;;;3.03;;
14768;SDS011;7476;49.404;11.152;2022-10-17T11:50:44;3.63;;;3.00;;
14768;SDS011;7476;49.404;11.152;2022-10-17T11:53:15;6.05;;;3.15;;
14768;SDS011;7476;49.404;11.152;2022-10-17T11:55:44;3.40;;;3.10;;
14768;SDS011;7476;49.404;11.152;2022-10-17T11:58:18;3.85;;;3.40;;
14768;SDS011;7476;49.404;11.152;2022-10-17T12:00:59;3.45;;;3.00;;
14768;SDS011;7476;49.404;11.152;2022-10-17T12:03:45;4.53;;;3.05;;
14768;SDS011;7476;49.404;11.152;2022-10-17T12:06:30;2.90;;;2.60;;
14768;SDS011;7476;49.404;11.152;2022-10-17T12:09:06;3.20;;;2.90;;
14768;SDS011;7476;49.404;11.152;2022-10-17T12:11:44;3.42;;;2.80;;
14768;SDS011;7476;49.404;11.152;2022-10-17T12:14:34;4.15;;;3.13;;
14768;SDS011;7476;49.404;11.152;2022-10-17T12:17:03;3.38;;;3.08;;
14768;SDS011;7476;49.404;11.152;2022-10-17T12:19:34;3.10;;;2.80;;
14768;SDS011;7476;49.404;11.152;2022-10-17T12:22:05;3.47;;;3.17;;
14768;SDS011;7476;49.404;11.152;2022-10-17T12:24:57;4.80;;;3.08;;
14768;SDS011;7476;49.404;11.152;2022-10-17T12:27:36;3.80;;;3.35;;
14768;SDS011;7476;49.404;11.152;2022-10-17T12:30:14;7.28;;;3.33;;
14768;SDS011;7476;49.404;11.152;2022-10-17T12:33:01;3.95;;;3.10;;
14768;SDS011;7476;49.404;11.152;2022-10-17T12:35:32;3.67;;;3.33;;
14768;SDS011;7476;49.404;11.152;2022-10-17T12:38:02;5.50;;;3.50;;
14768;SDS011;7476;49.404;11.152;2022-10-17T12:40:48;4.63;;;3.38;;
14768;SDS011;7476;49.404;11.152;2022-10-17T12:43:31;3.75;;;3.38;;
14768;SDS011;7476;49.404;11.152;2022-10-17T12:46:11;6.82;;;3.65;;
14768;SDS011;7476;49.404;11.152;2022-10-17T12:49:00;7.07;;;3.38;;
14768;SDS011;7476;49.404;11.152;2022-10-17T12:51:30;4.43;;;3.40;;
14768;SDS011;7476;49.404;11.152;2022-10-17T12:54:30;3.75;;;3.10;;
14768;SDS011;7476;49.404;11.152;2022-10-17T12:57:08;3.60;;;3.05;;
14768;SDS011;7476;49.404;11.152;2022-10-17T12:59:44;3.67;;;3.08;;
14768;SDS011;7476;49.404;11.152;2022-10-17T13:02:14;3.35;;;3.05;;
14768;SDS011;7476;49.404;11.152;2022-10-17T13:04:44;3.38;;;3.08;;
14768;SDS011;7476;49.404;11.152;2022-10-17T13:07:15;3.50;;;3.20;;
14768;SDS011;7476;49.404;11.152;2022-10-17T13:09:45;4.13;;;3.33;;
14768;SDS011;7476;49.404;11.152;2022-10-17T13:12:16;3.20;;;2.90;;
14768;SDS011;7476;49.404;11.152;2022-10-17T13:14:47;4.05;;;2.95;;
14768;SDS011;7476;49.404;11.152;2022-10-17T13:17:20;2.97;;;2.67;;
14768;SDS011;7476;49.404;11.152;2022-10-17T13:19:49;4.80;;;3.30;;
14768;SDS011;7476;49.404;11.152;2022-10-17T13:22:18;3.97;;;3.30;;
14768;SDS011;7476;49.404;11.152;2022-10-17T13:24:46;5.45;;;3.05;;
14768;SDS011;7476;49.404;11.152;2022-10-17T13:27:21;4.65;;;3.05;;
14768;SDS011;7476;49.404;11.152;2022-10-17T13:29:50;3.45;;;3.15;;
14768;SDS011;7476;49.404;11.152;2022-10-17T13:32:17;5.10;;;3.30;;
14768;SDS011;7476;49.404;11.152;2022-10-17T13:34:43;6.10;;;3.20;;
14768;SDS011;7476;49.404;11.152;2022-10-17T13:37:11;3.47;;;2.80;;
14768;SDS011;7476;49.404;11.152;2022-10-17T13:39:45;4.35;;;2.72;;
14768;SDS011;7476;49.404;11.152;2022-10-17T13:42:15;3.88;;;2.80;;
14768;SDS011;7476;49.404;11.152;2022-10-17T13:44:46;6.03;;;3.10;;
14768;SDS011;7476;49.404;11.152;2022-10-17T13:47:20;3.05;;;2.75;;
14768;SDS011;7476;49.404;11.152;2022-10-17T13:49:48;3.45;;;2.70;;
14768;SDS011;7476;49.404;11.152;2022-10-17T13:52:16;2.90;;;2.70;;
14768;SDS011;7476;49.404;11.152;2022-10-17T13:54:46;3.78;;;3.10;;
14768;SDS011;7476;49.404;11.152;2022-10-17T13:57:16;5.88;;;2.72;;
14768;SDS011;7476;49.404;11.152;2022-10-17T13:59:46;4.13;;;2.85;;
14768;SDS011;7476;49.404;11.152;2022-10-17T14:02:16;2.70;;;2.50;;
14768;SDS011;7476;49.404;11.152;2022-10-17T14:04:45;3.00;;;2.50;;
14768;SDS011;7476;49.404;11.152;2022-10-17T14:07:20;2.83;;;2.58;;
14768;SDS011;7476;49.404;11.152;2022-10-17T14:09:52;3.95;;;2.97;;
14768;SDS011;7476;49.404;11.152;2022-10-17T14:12:19;4.55;;;2.72;;
14768;SDS011;7476;49.404;11.152;2022-10-17T14:14:48;4.25;;;3.03;;
14768;SDS011;7476;49.404;11.152;2022-10-17T14:17:20;2.88;;;2.67;;
14768;SDS011;7476;49.404;11.152;2022-10-17T14:19:50;3.65;;;2.53;;
14768;SDS011;7476;49.404;11.152;2022-10-17T14:22:23;6.18;;;3.10;;
14768;SDS011;7476;49.404;11.152;2022-10-17T14:24:53;3.42;;;2.83;;
14768;SDS011;7476;49.404;11.152;2022-10-17T14:27:27;4.13;;;2.70;;
14768;SDS011;7476;49.404;11.152;2022-10-17T14:29:56;5.45;;;3.17;;
14768;SDS011;7476;49.404;11.152;2022-10-17T14:32:24;3.03;;;2.83;;
14768;SDS011;7476;49.404;11.152;2022-10-17T14:34:53;4.10;;;3.20;;
14768;SDS011;7476;49.404;11.152;2022-10-17T14:37:26;3.45;;;3.15;;
14768;SDS011;7476;49.404;11.152;2022-10-17T14:39:59;4.25;;;3.10;;
14768;SDS011;7476;49.404;11.152;2022-10-17T14:42:26;4.18;;;3.10;;
14768;SDS011;7476;49.404;11.152;2022-10-17T14:44:53;4.60;;;3.33;;
14768;SDS011;7476;49.404;11.152;2022-10-17T14:47:28;3.80;;;3.22;;
14768;SDS011;7476;49.404;11.152;2022-10-17T14:50:01;3.65;;;3.33;;
14768;SDS011;7476;49.404;11.152;2022-10-17T14:52:30;4.88;;;3.40;;
14768;SDS011;7476;49.404;11.152;2022-10-17T14:54:59;5.55;;;4.00;;
14768;SDS011;7476;49.404;11.152;2022-10-17T14:57:40;4.55;;;3.55;;
14768;SDS011;7476;49.404;11.152;2022-10-17T15:00:12;3.95;;;3.55;;
14768;SDS011;7476;49.404;11.152;2022-10-17T15:02:39;4.68;;;3.65;;
14768;SDS011;7476;49.404;11.152;2022-10-17T15:05:07;5.72;;;3.53;;
14768;SDS011;7476;49.404;11.152;2022-10-17T15:07:34;7.22;;;3.40;;
14768;SDS011;7476;49.404;11.152;2022-10-17T15:10:02;6.18;;;3.42;;